Nichioh Maru — JD3267 — position and weather

sailwx.info

Track history (hours):
 
Tides and Currents Weather Stations Pressure Air Temp Water Temp Dewpoint Dewpoint Depression Visibility Wind Speed Wind Dir Waves Ship Positions

Nichioh Maru

Last reported at 2014-Nov-22 11:33 UTC. Time now 2014-Nov-23 04:47 UTC.
Position N 35°07' E 139°43'.

Length 170 m; draft 6.5 m.

Type: Cargo ship. MMSI: 431003232.

Date/timePositionNaut miles runAvg speedWind from/ knotsBaromVisibWave heightAir tempDewpointWater temp
2014-Nov-22 11:33N 35°07' E 139°43'1312.5
2014-Nov-22 10:34N 35°19' E 139°43'1111.5
2014-Nov-22 09:33N 35°30' E 139°46'0 0.0
2014-Nov-22 08:22N 35°30' E 139°46'0 0.0
2014-Nov-22 07:28N 35°30' E 139°46'0 0.0
2014-Nov-22 06:31N 35°30' E 139°46'0 0.0
2014-Nov-22 05:28N 35°30' E 139°46'0 0.0
2014-Nov-22 04:29N 35°30' E 139°46'4 4.6
2014-Nov-22 03:33N 35°26' E 139°44'9 8.7
2014-Nov-22 02:33N 35°19' E 139°39'0 0.2
2014-Nov-22 01:32N 35°19' E 139°39'0 0.0
2014-Nov-22 00:29N 35°19' E 139°39'0 0.0
2014-Nov-21 23:29N 35°19' E 139°39'5 5.7
2014-Nov-21 22:33N 35°17' E 139°45'1211.7
2014-Nov-21 21:33N 35°05' E 139°45'24414.8
2014-Nov-21 05:04N 34°02' E 134°59'1019.1
2014-Nov-21 04:33N 34°12' E 134°58'1818.1
2014-Nov-21 03:33N 34°28' E 135°10'1313.4
2014-Nov-21 02:33N 34°41' E 135°14'0 0.1
2014-Nov-21 01:31N 34°41' E 135°13'0 0.0
2014-Nov-21 00:25N 34°41' E 135°13'0 0.0
2014-Nov-20 23:25N 34°41' E 135°13'1 1.1
2014-Nov-20 22:33N 34°40' E 135°15'4 3.7
2014-Nov-20 21:26N 34°36' E 135°16'0 0.0
2014-Nov-20 20:32N 34°36' E 135°16'0 0.0
2014-Nov-20 19:32N 34°36' E 135°16'0 0.0
2014-Nov-20 18:32N 34°36' E 135°16'0 0.0
2014-Nov-20 17:32N 34°36' E 135°16'0 0.0
2014-Nov-20 16:20N 34°36' E 135°16'0 0.0
2014-Nov-20 15:32N 34°36' E 135°16'0 0.0
2014-Nov-20 14:32N 34°36' E 135°16'0 0.0
2014-Nov-20 13:32N 34°36' E 135°16'0 0.0
2014-Nov-20 12:32N 34°36' E 135°16'0 0.0
2014-Nov-20 11:32N 34°36' E 135°16'0 0.0
2014-Nov-20 10:26N 34°36' E 135°16'0 0.0
2014-Nov-20 09:32N 34°36' E 135°16'0 0.0
2014-Nov-20 08:32N 34°36' E 135°16'0 0.0
2014-Nov-20 07:32N 34°36' E 135°16'0 0.0
2014-Nov-20 06:14N 34°36' E 135°16'0 0.1
2014-Nov-20 05:14N 34°36' E 135°16'0 0.1
2014-Nov-20 04:32N 34°36' E 135°16'0 0.0
2014-Nov-20 03:32N 34°36' E 135°16'0 0.0
2014-Nov-20 02:32N 34°36' E 135°16'4 4.0
2014-Nov-20 01:33N 34°35' E 135°11'1716.2
2014-Nov-20 00:32N 34°34' E 134°51'  
2014-Nov-17 06:22N 34°36' E 134°54'1519.0
2014-Nov-17 05:33N 34°37' E 135°13'4 3.2
2014-Nov-17 04:25N 34°41' E 135°13'0 0.0
2014-Nov-17 03:25N 34°41' E 135°13'0 0.0
2014-Nov-17 02:25N 34°41' E 135°13'0 0.0
2014-Nov-17 01:31N 34°41' E 135°13'0 0.0
2014-Nov-17 00:31N 34°41' E 135°13'4 4.2
2014-Nov-16 23:33N 34°37' E 135°16'2120.6
2014-Nov-16 22:33N 34°20' E 135°01'2120.7
2014-Nov-16 21:33N 33°60' E 134°59'232 7.2
2014-Nov-15 13:24N 35°00' E 139°31'1315.1
2014-Nov-15 12:33N 35°07' E 139°44'1212.4
2014-Nov-15 11:33N 35°19' E 139°43'1111.1
2014-Nov-15 10:33N 35°30' E 139°46'0 0.0
2014-Nov-15 09:30N 35°30' E 139°46'0 0.0
2014-Nov-15 08:30N 35°30' E 139°46'0 0.0
2014-Nov-15 07:33N 35°30' E 139°46'0 0.0
2014-Nov-15 06:33N 35°30' E 139°46'0 0.0
2014-Nov-15 05:33N 35°30' E 139°46'0 0.0
2014-Nov-15 04:33N 35°30' E 139°46'4 4.3
2014-Nov-15 03:33N 35°26' E 139°44'9 8.7
2014-Nov-15 02:33N 35°19' E 139°39'0 0.2
2014-Nov-15 01:31N 35°19' E 139°39'0 0.0
2014-Nov-15 00:31N 35°19' E 139°39'0 0.0
2014-Nov-14 23:31N 35°19' E 139°39'4 4.0
2014-Nov-14 22:33N 35°18' E 139°44'1110.5
2014-Nov-14 21:33N 35°08' E 139°45'24715.2
2014-Nov-14 05:19N 33°55' E 134°59'1519.1
2014-Nov-14 04:33N 34°10' E 134°59'1716.9
2014-Nov-14 03:33N 34°26' E 135°06'1616.2
2014-Nov-14 02:33N 34°40' E 135°15'1 1.3
2014-Nov-14 01:33N 34°41' E 135°13'0 0.0
2014-Nov-14 00:33N 34°41' E 135°13'0 0.0
2014-Nov-13 23:33N 34°41' E 135°13'2 2.3
2014-Nov-13 22:33N 34°39' E 135°16'3 2.8
2014-Nov-13 21:33N 34°36' E 135°16'0 0.0
2014-Nov-13 20:15N 34°37' E 135°16'0 0.1
2014-Nov-13 19:33N 34°36' E 135°16'0 0.0
2014-Nov-13 18:33N 34°36' E 135°16'0 0.0
2014-Nov-13 17:33N 34°36' E 135°16'0 0.0
2014-Nov-13 16:33N 34°36' E 135°16'0 0.1
2014-Nov-13 15:34N 34°37' E 135°16'0 0.1
2014-Nov-13 14:33N 34°37' E 135°16'0 0.0
2014-Nov-13 13:33N 34°36' E 135°16'0 0.0
2014-Nov-13 12:33N 34°37' E 135°16'0 0.1
2014-Nov-13 11:33N 34°37' E 135°16'1818.0
2014-Nov-13 10:33N 34°35' E 134°54'  
Track history (hours):
 
Tides and Currents Weather Stations Pressure Air Temp Water Temp Dewpoint Dewpoint Depression Visibility Wind Speed Wind Dir Waves Ship Positions

Nichioh Maru

Last reported at 2014-Nov-22 11:33 UTC. Time now 2014-Nov-23 04:47 UTC.
Position N 35°07' E 139°43'.

Length 170 m; draft 6.5 m.

Type: Cargo ship. MMSI: 431003232.

Date/timePositionNaut miles runAvg speedWind from/ knotsBaromVisibWave heightAir tempDewpointWater temp
2014-Nov-22 11:33N 35°07' E 139°43'1312.5
2014-Nov-22 10:34N 35°19' E 139°43'1111.5
2014-Nov-22 09:33N 35°30' E 139°46'0 0.0
2014-Nov-22 08:22N 35°30' E 139°46'0 0.0
2014-Nov-22 07:28N 35°30' E 139°46'0 0.0
2014-Nov-22 06:31N 35°30' E 139°46'0 0.0
2014-Nov-22 05:28N 35°30' E 139°46'0 0.0
2014-Nov-22 04:29N 35°30' E 139°46'4 4.6
2014-Nov-22 03:33N 35°26' E 139°44'9 8.7
2014-Nov-22 02:33N 35°19' E 139°39'0 0.2
2014-Nov-22 01:32N 35°19' E 139°39'0 0.0
2014-Nov-22 00:29N 35°19' E 139°39'0 0.0
2014-Nov-21 23:29N 35°19' E 139°39'5 5.7
2014-Nov-21 22:33N 35°17' E 139°45'1211.7
2014-Nov-21 21:33N 35°05' E 139°45'24414.8
2014-Nov-21 05:04N 34°02' E 134°59'1019.1
2014-Nov-21 04:33N 34°12' E 134°58'1818.1
2014-Nov-21 03:33N 34°28' E 135°10'1313.4
2014-Nov-21 02:33N 34°41' E 135°14'0 0.1
2014-Nov-21 01:31N 34°41' E 135°13'0 0.0
2014-Nov-21 00:25N 34°41' E 135°13'0 0.0
2014-Nov-20 23:25N 34°41' E 135°13'1 1.1
2014-Nov-20 22:33N 34°40' E 135°15'4 3.7
2014-Nov-20 21:26N 34°36' E 135°16'0 0.0
2014-Nov-20 20:32N 34°36' E 135°16'0 0.0
2014-Nov-20 19:32N 34°36' E 135°16'0 0.0
2014-Nov-20 18:32N 34°36' E 135°16'0 0.0
2014-Nov-20 17:32N 34°36' E 135°16'0 0.0
2014-Nov-20 16:20N 34°36' E 135°16'0 0.0
2014-Nov-20 15:32N 34°36' E 135°16'0 0.0
2014-Nov-20 14:32N 34°36' E 135°16'0 0.0
2014-Nov-20 13:32N 34°36' E 135°16'0 0.0
2014-Nov-20 12:32N 34°36' E 135°16'0 0.0
2014-Nov-20 11:32N 34°36' E 135°16'0 0.0
2014-Nov-20 10:26N 34°36' E 135°16'0 0.0
2014-Nov-20 09:32N 34°36' E 135°16'0 0.0
2014-Nov-20 08:32N 34°36' E 135°16'0 0.0
2014-Nov-20 07:32N 34°36' E 135°16'0 0.0
2014-Nov-20 06:14N 34°36' E 135°16'0 0.1
2014-Nov-20 05:14N 34°36' E 135°16'0 0.1
2014-Nov-20 04:32N 34°36' E 135°16'0 0.0
2014-Nov-20 03:32N 34°36' E 135°16'0 0.0
2014-Nov-20 02:32N 34°36' E 135°16'4 4.0
2014-Nov-20 01:33N 34°35' E 135°11'1716.2
2014-Nov-20 00:32N 34°34' E 134°51'  
2014-Nov-17 06:22N 34°36' E 134°54'1519.0
2014-Nov-17 05:33N 34°37' E 135°13'4 3.2
2014-Nov-17 04:25N 34°41' E 135°13'0 0.0
2014-Nov-17 03:25N 34°41' E 135°13'0 0.0
2014-Nov-17 02:25N 34°41' E 135°13'0 0.0
2014-Nov-17 01:31N 34°41' E 135°13'0 0.0
2014-Nov-17 00:31N 34°41' E 135°13'4 4.2
2014-Nov-16 23:33N 34°37' E 135°16'2120.6
2014-Nov-16 22:33N 34°20' E 135°01'2120.7
2014-Nov-16 21:33N 33°60' E 134°59'232 7.2
2014-Nov-15 13:24N 35°00' E 139°31'1315.1
2014-Nov-15 12:33N 35°07' E 139°44'1212.4
2014-Nov-15 11:33N 35°19' E 139°43'1111.1
2014-Nov-15 10:33N 35°30' E 139°46'0 0.0
2014-Nov-15 09:30N 35°30' E 139°46'0 0.0
2014-Nov-15 08:30N 35°30' E 139°46'0 0.0
2014-Nov-15 07:33N 35°30' E 139°46'0 0.0
2014-Nov-15 06:33N 35°30' E 139°46'0 0.0
2014-Nov-15 05:33N 35°30' E 139°46'0 0.0
2014-Nov-15 04:33N 35°30' E 139°46'4 4.3
2014-Nov-15 03:33N 35°26' E 139°44'9 8.7
2014-Nov-15 02:33N 35°19' E 139°39'0 0.2
2014-Nov-15 01:31N 35°19' E 139°39'0 0.0
2014-Nov-15 00:31N 35°19' E 139°39'0 0.0
2014-Nov-14 23:31N 35°19' E 139°39'4 4.0
2014-Nov-14 22:33N 35°18' E 139°44'1110.5
2014-Nov-14 21:33N 35°08' E 139°45'24715.2
2014-Nov-14 05:19N 33°55' E 134°59'1519.1
2014-Nov-14 04:33N 34°10' E 134°59'1716.9
2014-Nov-14 03:33N 34°26' E 135°06'1616.2
2014-Nov-14 02:33N 34°40' E 135°15'1 1.3
2014-Nov-14 01:33N 34°41' E 135°13'0 0.0
2014-Nov-14 00:33N 34°41' E 135°13'0 0.0
2014-Nov-13 23:33N 34°41' E 135°13'2 2.3
2014-Nov-13 22:33N 34°39' E 135°16'3 2.8
2014-Nov-13 21:33N 34°36' E 135°16'0 0.0
2014-Nov-13 20:15N 34°37' E 135°16'0 0.1
2014-Nov-13 19:33N 34°36' E 135°16'0 0.0
2014-Nov-13 18:33N 34°36' E 135°16'0 0.0
2014-Nov-13 17:33N 34°36' E 135°16'0 0.0
2014-Nov-13 16:33N 34°36' E 135°16'0 0.1
2014-Nov-13 15:34N 34°37' E 135°16'0 0.1
2014-Nov-13 14:33N 34°37' E 135°16'0 0.0
2014-Nov-13 13:33N 34°36' E 135°16'0 0.0
2014-Nov-13 12:33N 34°37' E 135°16'0 0.1
2014-Nov-13 11:33N 34°37' E 135°16'1818.0
2014-Nov-13 10:33N 34°35' E 134°54'  

Dump ship's entire track history